Time;durP1;ratioP1;P1;durP2;ratioP2;P2;SDS_P1;SDS_P2;PMS_P1;PMS_P2;Temp;Humidity;BMP_temperature;BMP_pressure;BME280_temperature;BME280_humidity;BME280_pressure;Samples;Min_cycle;Max_cycle;Signal;HPM_P1;HPM_P2
2024/01/29 00:08:57;;;;;;;9.15;5.20;;;7.20;1.00;;;;;;20678751;28;20539;-39
2024/01/29 00:18:59;;;;;;;10.90;5.43;;;7.20;1.00;;;;;;20697069;28;20034;-39
2024/01/29 00:29:00;;;;;;;9.00;5.65;;;7.30;1.00;;;;;;20686288;28;20039;-39
2024/01/29 00:39:06;;;;;;;8.45;5.30;;;7.30;1.00;;;;;;20679875;28;20046;-39
2024/01/29 00:49:07;;;;;;;11.45;5.05;;;7.30;1.00;;;;;;20687558;28;20045;-38
2024/01/29 00:59:07;;;;;;;10.73;5.47;;;7.40;1.00;;;;;;20693310;28;20420;-39
2024/01/29 01:09:09;;;;;;;7.65;4.38;;;7.30;1.00;;;;;;20684557;28;20034;-39
2024/01/29 01:19:09;;;;;;;8.15;5.28;;;7.20;1.00;;;;;;20684515;28;20051;-39
2024/01/29 01:29:13;;;;;;;8.52;5.28;;;7.30;1.00;;;;;;20684071;28;20096;-39
2024/01/29 01:39:14;;;;;;;10.63;5.60;;;7.20;1.00;;;;;;20681850;28;20252;-38
2024/01/29 01:49:15;;;;;;;7.72;5.40;;;7.10;1.00;;;;;;20685315;28;20038;-38
2024/01/29 01:59:18;;;;;;;9.85;5.68;;;7.00;1.00;;;;;;20678027;28;20543;-39
2024/01/29 02:09:19;;;;;;;8.48;5.18;;;6.70;1.00;;;;;;20681765;28;20121;-39
2024/01/29 02:19:20;;;;;;;9.50;5.45;;;6.80;1.00;;;;;;20682128;28;20738;-39
2024/01/29 02:29:20;;;;;;;11.68;6.05;;;6.70;1.00;;;;;;20686152;28;20394;-39
2024/01/29 02:39:21;;;;;;;12.23;5.70;;;6.70;1.00;;;;;;20682296;28;20097;-38
2024/01/29 02:49:22;;;;;;;9.95;5.65;;;6.60;1.00;;;;;;20679411;28;20038;-38
2024/01/29 02:59:22;;;;;;;8.60;5.40;;;6.60;1.00;;;;;;20693810;28;20065;-39
2024/01/29 03:09:23;;;;;;;11.13;5.87;;;6.50;1.00;;;;;;20699660;28;20327;-39
2024/01/29 03:19:23;;;;;;;9.83;6.03;;;6.40;1.00;;;;;;20699628;28;20878;-38
2024/01/29 03:29:24;;;;;;;10.83;5.43;;;6.40;1.00;;;;;;20697410;28;20457;-39
2024/01/29 03:39:25;;;;;;;9.70;5.70;;;6.30;1.00;;;;;;20695822;28;20050;-38
2024/01/29 03:49:25;;;;;;;12.10;6.25;;;6.30;1.00;;;;;;20695114;28;21042;-39
2024/01/29 03:59:26;;;;;;;10.65;5.78;;;6.20;1.00;;;;;;20691960;28;20042;-39
2024/01/29 04:09:26;;;;;;;9.55;5.53;;;6.20;1.00;;;;;;20690465;28;20114;-39
2024/01/29 04:19:27;;;;;;;11.27;5.93;;;6.10;1.00;;;;;;20697061;28;20136;-38
2024/01/29 04:29:27;;;;;;;10.68;5.93;;;6.10;1.00;;;;;;20694254;28;20556;-39
2024/01/29 04:39:28;;;;;;;9.48;5.72;;;6.10;1.00;;;;;;20689776;28;20140;-39
2024/01/29 04:49:29;;;;;;;10.32;6.25;;;6.00;1.00;;;;;;20685907;28;20453;-39
2024/01/29 04:59:29;;;;;;;9.98;5.90;;;6.00;1.00;;;;;;20691242;28;20048;-39
2024/01/29 05:09:30;;;;;;;12.52;6.40;;;6.00;1.00;;;;;;20688359;28;20034;-39
2024/01/29 05:19:30;;;;;;;13.27;7.05;;;5.90;1.00;;;;;;20691148;28;20442;-38
2024/01/29 05:29:31;;;;;;;11.63;6.47;;;5.90;1.00;;;;;;20686349;28;20034;-39
2024/01/29 05:39:32;;;;;;;12.23;6.60;;;5.90;1.00;;;;;;20685827;28;20464;-39
2024/01/29 05:49:32;;;;;;;10.90;6.68;;;5.80;1.00;;;;;;20681133;28;20034;-38
2024/01/29 05:59:33;;;;;;;12.07;6.60;;;6.00;1.00;;;;;;20685120;28;20040;-39
2024/01/29 06:09:33;;;;;;;10.23;6.37;;;6.00;1.00;;;;;;20684304;28;20042;-39
2024/01/29 06:19:34;;;;;;;10.95;6.50;;;5.90;1.00;;;;;;20685562;28;20075;-38
2024/01/29 06:29:34;;;;;;;12.73;7.00;;;5.80;1.00;;;;;;20684179;28;20066;-39
2024/01/29 06:39:35;;;;;;;12.60;7.20;;;5.70;1.00;;;;;;20686672;28;20069;-38
2024/01/29 06:49:36;;;;;;;11.70;6.50;;;5.70;1.00;;;;;;20686445;28;20038;-39
2024/01/29 06:59:36;;;;;;;14.40;7.50;;;5.70;1.00;;;;;;20689343;28;20057;-39
2024/01/29 07:09:38;;;;;;;12.05;7.30;;;5.70;1.00;;;;;;20677965;28;20147;-39
2024/01/29 07:19:39;;;;;;;12.15;7.40;;;5.50;1.00;;;;;;20671812;28;20046;-39
2024/01/29 07:29:40;;;;;;;15.45;7.30;;;5.50;1.00;;;;;;20677554;28;20409;-39
2024/01/29 07:39:41;;;;;;;12.07;6.67;;;5.50;1.00;;;;;;20668290;28;20049;-39
2024/01/29 07:49:42;;;;;;;14.48;7.80;;;5.50;1.00;;;;;;20681187;28;20452;-38
2024/01/29 07:59:45;;;;;;;13.80;7.70;;;5.50;1.00;;;;;;20675937;28;20057;-39
2024/01/29 08:09:49;;;;;;;11.45;7.43;;;5.60;1.00;;;;;;20683976;28;20045;-40
2024/01/29 08:19:50;;;;;;;12.88;8.00;;;5.70;1.00;;;;;;20688432;28;20035;-39
2024/01/29 08:29:50;;;;;;;15.25;9.70;;;5.90;1.00;;;;;;20690977;28;20548;-39
2024/01/29 08:39:51;;;;;;;14.90;9.20;;;5.80;1.00;;;;;;20688671;28;20064;-39
2024/01/29 08:49:52;;;;;;;14.32;7.82;;;6.00;1.00;;;;;;20685733;28;20094;-39
2024/01/29 08:59:52;;;;;;;13.40;7.72;;;6.00;1.00;;;;;;20686157;28;20646;-39
2024/01/29 09:09:53;;;;;;;12.77;7.63;;;5.90;1.00;;;;;;20684531;28;20058;-39
2024/01/29 09:19:54;;;;;;;14.43;8.52;;;6.10;1.00;;;;;;20684548;28;20422;-38
2024/01/29 09:29:54;;;;;;;12.70;8.33;;;6.10;1.00;;;;;;20684456;28;20092;-39
2024/01/29 09:39:55;;;;;;;15.30;9.00;;;6.10;1.00;;;;;;20682532;28;20482;-39
2024/01/29 09:49:56;;;;;;;14.47;9.67;;;6.40;1.00;;;;;;20681716;28;20038;-39
2024/01/29 09:59:57;;;;;;;16.08;9.25;;;6.70;1.00;;;;;;20673311;28;20527;-39
2024/01/29 10:10:01;;;;;;;15.90;9.65;;;7.00;1.00;;;;;;20674802;28;20046;-39
2024/01/29 10:20:02;;;;;;;16.35;10.05;;;7.30;1.00;;;;;;20669864;28;20152;-39
2024/01/29 10:30:04;;;;;;;15.60;10.07;;;7.60;1.00;;;;;;20672560;28;20042;-39
2024/01/29 10:40:08;;;;;;;15.48;10.48;;;8.00;1.00;;;;;;20671246;28;20526;-38
2024/01/29 10:50:10;;;;;;;19.55;10.45;;;8.40;1.00;;;;;;20666627;28;20050;-39
2024/01/29 11:00:12;;;;;;;18.00;10.20;;;8.70;1.00;;;;;;20667016;28;20069;-38
2024/01/29 11:10:20;;;;;;;16.27;11.15;;;9.20;1.00;;;;;;20661913;28;20389;-39
2024/01/29 11:20:22;;;;;;;17.65;11.35;;;9.40;1.00;;;;;;20664809;28;20080;-39
2024/01/29 11:30:28;;;;;;;18.48;11.48;;;9.90;1.00;;;;;;20678838;28;20483;-39
2024/01/29 11:40:40;;;;;;;18.70;11.50;;;10.40;1.00;;;;;;20675406;28;20042;-39
2024/01/29 11:50:44;;;;;;;17.98;11.25;;;10.80;1.00;;;;;;20678601;28;20515;-39
2024/01/29 12:00:46;;;;;;;16.13;10.32;;;11.20;1.00;;;;;;20676872;28;20038;-38
2024/01/29 12:10:47;;;;;;;16.63;10.95;;;11.50;1.00;;;;;;20681019;28;20038;-39
2024/01/29 12:20:48;;;;;;;15.40;10.90;;;11.80;1.00;;;;;;20677297;28;20046;-39
2024/01/29 12:30:57;;;;;;;18.80;11.60;;;11.90;1.00;;;;;;20672361;28;20041;-39
2024/01/29 12:40:58;;;;;;;15.43;10.57;;;12.30;1.00;;;;;;20677224;28;20050;-39
2024/01/29 12:50:59;;;;;;;17.70;10.87;;;12.70;1.00;;;;;;20673176;28;20062;-39
2024/01/29 13:00:59;;;;;;;14.05;10.40;;;12.80;1.00;;;;;;20673439;28;20239;-39
2024/01/29 13:11:00;;;;;;;15.35;10.90;;;12.80;1.00;;;;;;20672300;28;20149;-39
2024/01/29 13:21:04;;;;;;;18.45;11.15;;;12.70;1.00;;;;;;20667497;28;20053;-39
2024/01/29 13:31:04;;;;;;;14.82;10.80;;;13.00;1.00;;;;;;20667717;28;20452;-39
2024/01/29 13:41:07;;;;;;;14.63;10.70;;;12.70;1.00;;;;;;20666040;28;20137;-39
2024/01/29 13:51:07;;;;;;;17.23;11.15;;;12.50;1.00;;;;;;20670141;28;20405;-39
2024/01/29 14:01:08;;;;;;;17.00;11.05;;;12.20;1.00;;;;;;20669183;28;20046;-39
2024/01/29 14:11:09;;;;;;;16.08;11.65;;;11.90;1.00;;;;;;20662793;28;20084;-39
2024/01/29 14:21:09;;;;;;;16.33;10.93;;;11.90;1.00;;;;;;20662505;28;20524;-39
2024/01/29 14:31:10;;;;;;;19.48;11.77;;;11.80;1.00;;;;;;20667158;28;20046;-39
2024/01/29 14:41:10;;;;;;;16.03;11.53;;;11.70;1.00;;;;;;20664919;28;20074;-39
2024/01/29 14:51:11;;;;;;;18.02;12.48;;;11.60;1.00;;;;;;20663185;28;20066;-39
2024/01/29 15:01:12;;;;;;;18.25;11.13;;;11.50;1.00;;;;;;20655671;28;20034;-39
2024/01/29 15:11:12;;;;;;;17.70;12.48;;;11.40;1.00;;;;;;20658323;28;20053;-39
2024/01/29 15:21:13;;;;;;;17.13;11.30;;;11.20;1.00;;;;;;20655166;28;20096;-39
2024/01/29 15:31:14;;;;;;;19.10;11.77;;;11.40;1.00;;;;;;20637475;28;20061;-39
2024/01/29 15:41:16;;;;;;;16.77;11.35;;;11.30;1.00;;;;;;20632738;28;20076;-39
2024/01/29 15:51:17;;;;;;;18.70;11.60;;;11.20;1.00;;;;;;20636136;28;20069;-39
2024/01/29 16:01:18;;;;;;;17.92;11.80;;;11.00;1.00;;;;;;20634264;28;20512;-39
2024/01/29 16:11:19;;;;;;;17.95;12.05;;;11.00;1.00;;;;;;20645630;28;20046;-39
2024/01/29 16:21:22;;;;;;;20.63;12.38;;;10.90;1.00;;;;;;20672171;28;20120;-40
2024/01/29 16:31:23;;;;;;;16.10;11.10;;;10.90;1.00;;;;;;20669663;28;20037;-39
2024/01/29 16:41:27;;;;;;;16.17;11.20;;;10.80;1.00;;;;;;20669899;28;20041;-39
2024/01/29 16:51:28;;;;;;;16.77;11.35;;;10.70;1.00;;;;;;20666309;28;20076;-39
2024/01/29 17:01:28;;;;;;;18.20;11.80;;;10.60;1.00;;;;;;20666162;28;20046;-39
2024/01/29 17:11:29;;;;;;;22.00;12.43;;;10.40;1.00;;;;;;20669290;28;21112;-39
2024/01/29 17:21:30;;;;;;;18.17;12.57;;;10.40;1.00;;;;;;20647618;28;20057;-40
2024/01/29 17:31:30;;;;;;;22.67;12.17;;;10.30;1.00;;;;;;20648262;28;20092;-39
2024/01/29 17:41:31;;;;;;;24.35;14.00;;;10.20;1.00;;;;;;20646091;28;20046;-39
2024/01/29 17:51:31;;;;;;;24.25;13.35;;;10.20;1.00;;;;;;20640767;28;20470;-39
2024/01/29 18:01:33;;;;;;;22.02;13.27;;;10.10;1.00;;;;;;20653232;28;20099;-39
2024/01/29 18:11:33;;;;;;;23.90;12.98;;;10.10;1.00;;;;;;20641287;28;20045;-39
2024/01/29 18:21:37;;;;;;;19.92;12.27;;;10.00;1.00;;;;;;20654862;28;20034;-39
2024/01/29 18:31:38;;;;;;;18.35;12.02;;;10.00;1.00;;;;;;20606794;28;20045;-39
2024/01/29 18:41:38;;;;;;;19.97;12.90;;;10.00;1.00;;;;;;20656190;28;20058;-42
2024/01/29 18:51:41;;;;;;;19.00;13.27;;;10.00;1.00;;;;;;20653542;28;21126;-39
2024/01/29 19:01:41;;;;;;;20.88;13.50;;;10.00;1.00;;;;;;20645702;28;20038;-39
2024/01/29 19:11:42;;;;;;;23.35;13.80;;;10.00;1.00;;;;;;20638116;28;20464;-39
2024/01/29 19:21:43;;;;;;;20.52;13.73;;;9.90;1.00;;;;;;20643624;28;20164;-39
2024/01/29 19:31:47;;;;;;;22.38;13.00;;;9.80;1.00;;;;;;20638998;28;20037;-39
2024/01/29 19:41:48;;;;;;;23.30;14.65;;;9.90;1.00;;;;;;20650958;28;20058;-39
2024/01/29 19:51:50;;;;;;;20.43;14.03;;;10.00;1.00;;;;;;20663079;28;20053;-39
2024/01/29 20:01:51;;;;;;;21.55;13.60;;;10.10;1.00;;;;;;20669226;28;20456;-39
2024/01/29 20:11:51;;;;;;;20.75;13.25;;;10.20;1.00;;;;;;20668234;28;20034;-39
2024/01/29 20:21:52;;;;;;;27.15;15.52;;;10.20;1.50;;;;;;20663434;28;20565;-39
2024/01/29 20:31:53;;;;;;;24.92;15.30;;;10.20;3.60;;;;;;20661867;28;20034;-39
2024/01/29 20:41:55;;;;;;;23.35;14.50;;;10.20;5.20;;;;;;20663406;28;20045;-39
2024/01/29 20:51:55;;;;;;;20.85;13.70;;;10.30;5.10;;;;;;20651411;28;20178;-39
2024/01/29 21:01:56;;;;;;;19.85;13.82;;;10.30;4.90;;;;;;20654326;28;20046;-39
2024/01/29 21:11:56;;;;;;;21.80;13.90;;;10.20;7.20;;;;;;20674296;28;20449;-39
2024/01/29 21:21:58;;;;;;;23.33;14.82;;;10.20;9.30;;;;;;20675471;28;20469;-39
2024/01/29 21:31:58;;;;;;;25.73;14.40;;;10.30;8.80;;;;;;20671385;28;20074;-39
2024/01/29 21:41:59;;;;;;;23.45;15.32;;;10.20;9.00;;;;;;20668963;28;20508;-39
2024/01/29 21:52:00;;;;;;;23.50;15.07;;;10.20;10.70;;;;;;20668219;28;20045;-39
2024/01/29 22:02:00;;;;;;;21.58;14.40;;;10.10;12.70;;;;;;20667896;28;20042;-39
2024/01/29 22:12:01;;;;;;;23.70;15.68;;;10.00;14.00;;;;;;20663654;28;20069;-39
2024/01/29 22:22:02;;;;;;;21.85;14.27;;;10.00;15.30;;;;;;20662444;28;20843;-39
2024/01/29 22:32:03;;;;;;;21.10;14.10;;;9.90;16.00;;;;;;20663630;28;20026;-40
2024/01/29 22:42:04;;;;;;;20.10;13.95;;;9.90;17.70;;;;;;20670518;28;20041;-39
2024/01/29 22:52:05;;;;;;;20.25;14.00;;;9.90;14.90;;;;;;20668446;28;20076;-39
2024/01/29 23:02:06;;;;;;;18.58;12.63;;;9.80;17.30;;;;;;20661958;28;20041;-39
2024/01/29 23:12:07;;;;;;;18.20;12.75;;;9.90;14.70;;;;;;20661378;28;20042;-39
2024/01/29 23:22:07;;;;;;;16.13;11.57;;;9.80;12.90;;;;;;20673610;28;20045;-39
2024/01/29 23:32:09;;;;;;;17.27;11.93;;;9.70;14.10;;;;;;20674506;28;20447;-39
2024/01/29 23:42:09;;;;;;;17.38;10.98;;;9.60;18.20;;;;;;20671355;28;20049;-39
2024/01/29 23:52:10;;;;;;;18.60;12.18;;;9.60;17.80;;;;;;20672449;28;20049;-39
